createdAt,value
2019-04-23T00:01:29.897Z,79.10
2019-04-23T00:05:41.415Z,80.10
2019-04-23T00:09:39.328Z,80.50
2019-04-23T00:13:50.248Z,80.70
2019-04-23T00:17:55.783Z,81.00
2019-04-23T00:22:05.465Z,81.10
2019-04-23T00:26:25.650Z,81.40
2019-04-23T00:30:36.471Z,81.50
2019-04-23T00:38:49.927Z,82.40
2019-04-23T00:47:23.536Z,82.90
2019-04-23T00:51:22.403Z,83.70
2019-04-23T00:55:31.275Z,84.10
2019-04-23T00:59:48.245Z,84.50
2019-04-23T01:03:48.346Z,85.30
2019-04-23T01:07:51.501Z,85.80
2019-04-23T01:12:03.896Z,87.60
2019-04-23T01:16:13.147Z,88.00
2019-04-23T01:20:20.988Z,88.20
2019-04-23T01:24:14.113Z,88.70
2019-04-23T01:28:42.456Z,89.30
2019-04-23T01:32:54.659Z,89.10
2019-04-23T01:36:56.460Z,89.40
2019-04-23T01:41:07.718Z,90.00
2019-04-23T01:45:21.799Z,90.10
2019-04-23T01:49:31.453Z,90.20
2019-04-23T01:53:34.605Z,90.30
2019-04-23T02:05:58.884Z,91.00
2019-04-23T02:10:07.159Z,91.00
2019-04-23T02:14:16.298Z,91.00
2019-04-23T02:18:24.408Z,91.60
2019-04-23T02:22:58.717Z,91.60
2019-04-23T02:27:03.215Z,91.80
2019-04-23T02:39:36.802Z,92.20
2019-04-23T02:43:26.409Z,92.30
2019-04-23T02:52:03.487Z,91.90
2019-04-23T02:56:29.118Z,91.80
2019-04-23T03:04:34.852Z,91.80
2019-04-23T03:08:27.253Z,92.00
2019-04-23T03:12:52.605Z,91.80
2019-04-23T03:16:53.991Z,91.80
2019-04-23T03:25:27.240Z,92.20
2019-04-23T03:29:31.735Z,92.40
2019-04-23T03:41:54.839Z,92.40
2019-04-23T03:46:22.082Z,92.60
2019-04-23T04:03:04.681Z,93.30
2019-04-23T04:07:15.331Z,92.80
2019-04-23T04:11:14.631Z,92.40
2019-04-23T04:15:53.316Z,92.10
2019-04-23T04:23:43.187Z,90.30
2019-04-23T04:27:54.468Z,88.90
2019-04-23T04:31:57.156Z,86.40
2019-04-23T04:36:21.877Z,84.90
2019-04-23T04:40:45.817Z,83.60
2019-04-23T04:44:43.516Z,81.90
2019-04-23T04:48:54.872Z,78.50
2019-04-23T04:53:12.574Z,75.70
2019-04-23T04:57:20.436Z,73.50
2019-04-23T05:05:51.565Z,69.50
2019-04-23T05:09:52.085Z,67.70
2019-04-23T05:13:51.555Z,65.00
2019-04-23T05:18:20.655Z,64.40
2019-04-23T05:22:06.950Z,64.90
2019-04-23T05:26:17.387Z,64.00
2019-04-23T05:30:25.106Z,60.70
2019-04-23T05:34:27.349Z,60.80
2019-04-23T05:42:50.046Z,56.20
2019-04-23T05:46:55.842Z,55.90
2019-04-23T05:51:04.521Z,54.50
2019-04-23T05:55:08.818Z,51.10
2019-04-23T05:59:19.555Z,51.80
2019-04-23T06:03:29.379Z,54.70
2019-04-23T06:07:38.929Z,50.50
2019-04-23T06:11:53.654Z,46.90
2019-04-23T06:15:55.875Z,42.20
2019-04-23T06:20:04.318Z,43.20
2019-04-23T06:24:16.812Z,46.10
2019-04-23T06:32:25.837Z,42.50
2019-04-23T06:36:32.633Z,40.30
2019-04-23T06:40:43.482Z,40.70
2019-04-23T06:44:51.698Z,42.50
2019-04-23T06:49:00.719Z,39.50
2019-04-23T06:52:58.864Z,40.40
2019-04-23T06:57:19.190Z,40.10
2019-04-23T07:01:22.145Z,42.90
2019-04-23T07:05:37.673Z,44.60
2019-04-23T07:09:38.885Z,42.00
2019-04-23T07:13:55.826Z,40.60
2019-04-23T07:17:58.760Z,41.00
2019-04-23T07:22:14.721Z,42.60
2019-04-23T07:30:32.875Z,45.80
2019-04-23T07:34:49.411Z,46.80
2019-04-23T07:39:11.753Z,45.10
2019-04-23T07:43:34.331Z,44.80
2019-04-23T07:48:01.425Z,43.60
2019-04-23T07:52:13.234Z,42.60
2019-04-23T07:56:13.124Z,41.80
2019-04-23T08:00:29.713Z,43.20
2019-04-23T08:04:35.268Z,43.60
2019-04-23T08:08:39.331Z,45.50
2019-04-23T08:12:45.173Z,46.20
2019-04-23T08:16:50.327Z,44.10
2019-04-23T08:21:05.559Z,44.60
2019-04-23T08:25:12.565Z,44.50
2019-04-23T08:29:24.987Z,44.20
2019-04-23T08:33:42.257Z,42.20
2019-04-23T08:45:59.550Z,52.50
2019-04-23T08:50:27.688Z,51.90
2019-04-23T08:54:29.805Z,51.00
2019-04-23T08:58:34.295Z,49.80
2019-04-23T09:02:47.804Z,50.30
2019-04-23T09:06:50.192Z,49.60
2019-04-23T09:10:55.802Z,48.80
2019-04-23T09:15:01.869Z,43.40
2019-04-23T09:23:11.590Z,47.60
2019-04-23T09:27:31.667Z,50.50
2019-04-23T09:32:05.677Z,45.50
2019-04-23T09:36:06.539Z,40.50
2019-04-23T09:40:51.555Z,41.50
2019-04-23T09:44:57.049Z,41.90
2019-04-23T09:49:03.376Z,40.80
2019-04-23T09:57:07.315Z,42.50
2019-04-23T10:05:19.522Z,43.90
2019-04-23T10:09:16.147Z,42.40
2019-04-23T10:13:22.062Z,41.90
2019-04-23T10:17:28.935Z,42.20
2019-04-23T10:21:35.391Z,48.70
2019-04-23T10:25:41.723Z,53.80
2019-04-23T10:29:49.936Z,54.90
2019-04-23T10:33:57.945Z,54.00
2019-04-23T10:38:10.131Z,52.20
2019-04-23T10:42:14.203Z,50.30
2019-04-23T10:46:48.922Z,49.60
2019-04-23T10:51:04.570Z,47.40
2019-04-23T10:55:11.988Z,47.00
2019-04-23T11:04:02.474Z,54.70
2019-04-23T11:07:42.048Z,57.10
2019-04-23T11:12:12.333Z,58.60
2019-04-23T11:16:40.420Z,59.40
2019-04-23T11:24:36.020Z,62.30
2019-04-23T11:32:56.984Z,62.40
2019-04-23T11:41:07.256Z,60.70
2019-04-23T11:45:18.501Z,57.80
2019-04-23T11:49:34.867Z,57.70
2019-04-23T11:53:32.045Z,59.40
2019-04-23T11:57:41.235Z,59.30
2019-04-23T12:02:00.812Z,58.80
2019-04-23T12:06:25.043Z,60.60
2019-04-23T12:19:40.943Z,63.20
2019-04-23T12:23:43.628Z,63.30
2019-04-23T12:27:27.497Z,64.10
2019-04-23T12:31:47.581Z,64.70
2019-04-23T12:35:39.019Z,64.90
2019-04-23T12:40:00.590Z,65.20
2019-04-23T12:44:00.930Z,65.70
2019-04-23T12:52:18.172Z,65.10
2019-04-23T12:56:31.807Z,65.10
2019-04-23T13:04:48.885Z,63.70
2019-04-23T13:08:54.486Z,63.90
2019-04-23T13:13:10.790Z,65.10
2019-04-23T13:17:27.353Z,64.80
2019-04-23T13:21:41.393Z,64.80
2019-04-23T13:25:37.584Z,64.70
2019-04-23T13:29:43.514Z,65.70
2019-04-23T13:42:05.174Z,65.60
2019-04-23T13:46:13.775Z,65.90
2019-04-23T13:50:30.927Z,66.20
2019-04-23T13:54:46.486Z,65.60
2019-04-23T13:58:38.558Z,66.10
2019-04-23T14:06:53.921Z,67.50
2019-04-23T14:10:53.250Z,67.60
2019-04-23T14:15:12.516Z,67.40
2019-04-23T14:19:06.781Z,67.50
2019-04-23T14:23:41.239Z,68.40
2019-04-23T14:27:39.919Z,68.40
2019-04-23T14:31:43.400Z,68.40
2019-04-23T14:35:54.477Z,69.20
2019-04-23T14:40:21.686Z,68.90
2019-04-23T14:44:36.671Z,70.00
2019-04-23T14:48:51.640Z,69.60
2019-04-23T14:53:06.582Z,69.80
2019-04-23T14:57:07.950Z,69.70
2019-04-23T15:05:24.053Z,68.30
2019-04-23T15:09:33.880Z,68.20
2019-04-23T15:17:49.330Z,69.20
2019-04-23T15:26:50.931Z,70.90
2019-04-23T15:27:15.786Z,70.80
2019-04-23T15:30:03.721Z,71.90
2019-04-23T15:34:20.933Z,71.90
2019-04-23T15:42:41.236Z,71.90
2019-04-23T15:46:47.096Z,72.00
2019-04-23T15:51:04.444Z,72.00
2019-04-23T15:55:02.018Z,72.90
2019-04-23T15:59:25.934Z,73.00
2019-04-23T16:02:52.092Z,73.70
2019-04-23T16:07:08.477Z,74.20
2019-04-23T16:11:45.396Z,74.40
2019-04-23T16:16:02.585Z,75.10
2019-04-23T16:24:13.613Z,75.80
2019-04-23T16:28:18.882Z,76.70
2019-04-23T16:32:37.593Z,76.80
2019-04-23T16:36:48.268Z,77.30
2019-04-23T16:40:47.657Z,78.40
2019-04-23T16:49:20.031Z,80.00
2019-04-23T16:53:21.203Z,80.60
2019-04-23T16:57:39.000Z,81.00
2019-04-23T17:01:24.902Z,81.20
2019-04-23T17:10:03.224Z,82.70
2019-04-23T17:14:04.553Z,83.90
2019-04-23T17:18:11.631Z,85.00
2019-04-23T17:22:11.575Z,85.80
2019-04-23T17:26:26.299Z,86.60
2019-04-23T17:30:32.484Z,87.10
2019-04-23T17:39:06.382Z,88.80
2019-04-23T17:43:06.433Z,89.40
2019-04-23T17:47:37.757Z,90.10
2019-04-23T17:52:05.404Z,90.20
2019-04-23T18:00:23.153Z,90.70
2019-04-23T18:08:19.427Z,91.10
2019-04-23T18:21:03.309Z,91.70
2019-04-23T18:25:11.103Z,92.00
2019-04-23T18:34:05.306Z,92.20
2019-04-23T18:37:58.498Z,92.30
2019-04-23T18:42:22.375Z,92.50
2019-04-23T18:50:46.851Z,92.80
2019-04-23T18:54:34.725Z,93.00
2019-04-23T19:03:01.350Z,93.30
2019-04-23T19:07:42.531Z,93.50
2019-04-23T19:15:53.011Z,94.00
2019-04-23T19:20:18.023Z,94.10
2019-04-23T19:24:23.847Z,94.30
2019-04-23T19:32:39.090Z,94.80
2019-04-23T19:40:55.257Z,94.80
2019-04-23T19:44:54.399Z,94.90
2019-04-23T19:53:25.300Z,95.10
2019-04-23T19:57:22.339Z,95.10
2019-04-23T20:01:29.039Z,95.30
2019-04-23T20:05:41.873Z,95.30
2019-04-23T20:18:01.067Z,95.60
2019-04-23T20:22:16.367Z,95.80
2019-04-23T20:30:41.322Z,96.10
2019-04-23T20:34:51.864Z,96.20
2019-04-23T20:38:57.436Z,96.30
2019-04-23T20:42:53.031Z,96.50
2019-04-23T20:51:16.763Z,97.00
2019-04-23T20:55:29.332Z,97.10
2019-04-23T20:59:35.914Z,97.20
2019-04-23T21:12:05.059Z,97.50
2019-04-23T21:24:42.898Z,97.90
2019-04-23T21:28:48.256Z,97.90
2019-04-23T21:33:04.885Z,98.10
2019-04-23T21:37:06.282Z,98.30
2019-04-23T21:41:32.964Z,98.30
2019-04-23T21:45:30.475Z,98.30
2019-04-23T21:49:50.711Z,98.30
2019-04-23T21:53:46.027Z,98.40
2019-04-23T22:02:38.290Z,98.60
2019-04-23T22:06:41.302Z,98.80
2019-04-23T22:10:47.856Z,98.90
2019-04-23T22:14:47.494Z,99.10
2019-04-23T22:19:04.227Z,99.20
2019-04-23T22:27:08.608Z,99.20
2019-04-23T22:31:18.744Z,99.10
2019-04-23T22:35:24.405Z,99.10
2019-04-23T22:39:40.076Z,99.00
2019-04-23T22:43:57.721Z,99.10
2019-04-23T22:47:58.445Z,99.20
2019-04-23T22:56:10.715Z,99.30
2019-04-23T23:04:31.238Z,99.50
2019-04-23T23:08:40.839Z,99.60
2019-04-23T23:12:52.783Z,99.60
2019-04-23T23:16:50.351Z,99.40
2019-04-23T23:21:05.530Z,99.30
2019-04-23T23:25:15.193Z,99.30
2019-04-23T23:29:15.465Z,99.20
2019-04-23T23:33:23.288Z,99.10
2019-04-23T23:37:39.632Z,99.10
2019-04-23T23:50:15.941Z,99.10
2019-04-23T23:54:21.467Z,99.10
2019-04-23T23:58:40.658Z,99.10
